sensor_id;sensor_type;location;lat;lon;timestamp;P1;durP1;ratioP1;P2;durP2;ratioP2
36575;SDS011;45700;50.930;5.168;2023-02-01T00:00:11;16.33;;;4.13;;
36575;SDS011;45700;50.930;5.168;2023-02-01T00:04:12;9.95;;;4.32;;
36575;SDS011;45700;50.930;5.168;2023-02-01T00:08:13;19.13;;;4.78;;
36575;SDS011;45700;50.930;5.168;2023-02-01T00:12:14;24.17;;;6.28;;
36575;SDS011;45700;50.930;5.168;2023-02-01T00:16:16;11.65;;;4.28;;
36575;SDS011;45700;50.930;5.168;2023-02-01T00:20:18;26.17;;;5.47;;
36575;SDS011;45700;50.930;5.168;2023-02-01T00:24:19;16.75;;;4.93;;
36575;SDS011;45700;50.930;5.168;2023-02-01T00:28:20;18.23;;;5.35;;
36575;SDS011;45700;50.930;5.168;2023-02-01T00:32:21;11.57;;;4.57;;
36575;SDS011;45700;50.930;5.168;2023-02-01T00:36:22;15.57;;;5.45;;
36575;SDS011;45700;50.930;5.168;2023-02-01T00:40:23;19.73;;;5.20;;
36575;SDS011;45700;50.930;5.168;2023-02-01T00:44:24;14.73;;;5.25;;
36575;SDS011;45700;50.930;5.168;2023-02-01T00:48:27;13.98;;;4.25;;
36575;SDS011;45700;50.930;5.168;2023-02-01T00:52:28;17.98;;;5.32;;
36575;SDS011;45700;50.930;5.168;2023-02-01T00:56:29;17.25;;;4.82;;
36575;SDS011;45700;50.930;5.168;2023-02-01T01:00:30;17.50;;;4.95;;
36575;SDS011;45700;50.930;5.168;2023-02-01T01:04:31;16.15;;;4.35;;
36575;SDS011;45700;50.930;5.168;2023-02-01T01:08:32;19.33;;;5.15;;
36575;SDS011;45700;50.930;5.168;2023-02-01T01:12:33;11.48;;;4.22;;
36575;SDS011;45700;50.930;5.168;2023-02-01T01:16:34;21.58;;;4.55;;
36575;SDS011;45700;50.930;5.168;2023-02-01T01:20:36;17.98;;;5.32;;
36575;SDS011;45700;50.930;5.168;2023-02-01T01:24:37;14.95;;;5.10;;
36575;SDS011;45700;50.930;5.168;2023-02-01T01:28:38;16.85;;;5.80;;
36575;SDS011;45700;50.930;5.168;2023-02-01T01:32:39;25.45;;;5.45;;
36575;SDS011;45700;50.930;5.168;2023-02-01T01:36:40;22.17;;;6.95;;
36575;SDS011;45700;50.930;5.168;2023-02-01T01:40:45;18.10;;;6.10;;
36575;SDS011;45700;50.930;5.168;2023-02-01T01:45:47;18.00;;;4.55;;
36575;SDS011;45700;50.930;5.168;2023-02-01T01:49:17;25.42;;;5.25;;
36575;SDS011;45700;50.930;5.168;2023-02-01T01:53:21;13.55;;;4.65;;
36575;SDS011;45700;50.930;5.168;2023-02-01T01:57:26;19.40;;;4.85;;
36575;SDS011;45700;50.930;5.168;2023-02-01T02:01:28;20.92;;;5.53;;
36575;SDS011;45700;50.930;5.168;2023-02-01T02:05:29;19.27;;;4.78;;
36575;SDS011;45700;50.930;5.168;2023-02-01T02:09:31;23.50;;;4.70;;
36575;SDS011;45700;50.930;5.168;2023-02-01T02:13:36;22.25;;;4.25;;
36575;SDS011;45700;50.930;5.168;2023-02-01T02:17:58;14.10;;;3.90;;
36575;SDS011;45700;50.930;5.168;2023-02-01T02:26:19;11.70;;;2.47;;
36575;SDS011;45700;50.930;5.168;2023-02-01T02:43:29;21.73;;;2.15;;
36575;SDS011;45700;50.930;5.168;2023-02-01T02:56:31;16.48;;;1.63;;
36575;SDS011;45700;50.930;5.168;2023-02-01T03:00:51;11.10;;;1.60;;
36575;SDS011;45700;50.930;5.168;2023-02-01T03:05:12;15.13;;;1.90;;
36575;SDS011;45700;50.930;5.168;2023-02-01T03:09:16;10.65;;;1.65;;
36575;SDS011;45700;50.930;5.168;2023-02-01T03:17:19;7.82;;;1.83;;
36575;SDS011;45700;50.930;5.168;2023-02-01T03:21:22;12.93;;;1.75;;
36575;SDS011;45700;50.930;5.168;2023-02-01T03:25:28;7.60;;;1.75;;
36575;SDS011;45700;50.930;5.168;2023-02-01T03:29:35;9.15;;;1.95;;
36575;SDS011;45700;50.930;5.168;2023-02-01T03:33:38;18.08;;;2.58;;
36575;SDS011;45700;50.930;5.168;2023-02-01T03:37:39;15.85;;;2.50;;
36575;SDS011;45700;50.930;5.168;2023-02-01T03:41:40;10.75;;;1.67;;
36575;SDS011;45700;50.930;5.168;2023-02-01T03:45:54;9.63;;;1.75;;
36575;SDS011;45700;50.930;5.168;2023-02-01T03:50:01;15.60;;;1.75;;
36575;SDS011;45700;50.930;5.168;2023-02-01T03:54:03;12.25;;;1.77;;
36575;SDS011;45700;50.930;5.168;2023-02-01T03:58:06;13.32;;;1.55;;
36575;SDS011;45700;50.930;5.168;2023-02-01T04:02:08;15.25;;;2.25;;
36575;SDS011;45700;50.930;5.168;2023-02-01T04:06:09;17.20;;;1.80;;
36575;SDS011;45700;50.930;5.168;2023-02-01T04:10:11;15.35;;;1.75;;
36575;SDS011;45700;50.930;5.168;2023-02-01T04:14:12;7.40;;;1.35;;
36575;SDS011;45700;50.930;5.168;2023-02-01T04:18:13;13.50;;;1.63;;
36575;SDS011;45700;50.930;5.168;2023-02-01T04:22:14;12.15;;;1.90;;
36575;SDS011;45700;50.930;5.168;2023-02-01T04:26:15;14.00;;;1.88;;
36575;SDS011;45700;50.930;5.168;2023-02-01T04:30:16;9.27;;;1.75;;
36575;SDS011;45700;50.930;5.168;2023-02-01T04:34:17;18.02;;;2.97;;
36575;SDS011;45700;50.930;5.168;2023-02-01T04:38:18;20.88;;;1.55;;
36575;SDS011;45700;50.930;5.168;2023-02-01T04:42:19;8.95;;;2.13;;
36575;SDS011;45700;50.930;5.168;2023-02-01T04:46:20;7.90;;;1.88;;
36575;SDS011;45700;50.930;5.168;2023-02-01T04:50:21;15.75;;;2.40;;
36575;SDS011;45700;50.930;5.168;2023-02-01T04:54:23;17.50;;;1.90;;
36575;SDS011;45700;50.930;5.168;2023-02-01T04:58:25;12.95;;;1.80;;
36575;SDS011;45700;50.930;5.168;2023-02-01T05:02:26;8.23;;;1.60;;
36575;SDS011;45700;50.930;5.168;2023-02-01T05:06:27;19.55;;;1.92;;
36575;SDS011;45700;50.930;5.168;2023-02-01T05:10:28;7.55;;;1.50;;
36575;SDS011;45700;50.930;5.168;2023-02-01T05:14:29;22.70;;;2.65;;
36575;SDS011;45700;50.930;5.168;2023-02-01T05:18:30;18.55;;;2.22;;
36575;SDS011;45700;50.930;5.168;2023-02-01T05:22:31;6.43;;;1.63;;
36575;SDS011;45700;50.930;5.168;2023-02-01T05:26:32;10.52;;;2.22;;
36575;SDS011;45700;50.930;5.168;2023-02-01T05:30:33;25.33;;;2.60;;
36575;SDS011;45700;50.930;5.168;2023-02-01T05:34:35;16.67;;;1.92;;
36575;SDS011;45700;50.930;5.168;2023-02-01T05:38:37;12.98;;;2.22;;
36575;SDS011;45700;50.930;5.168;2023-02-01T05:42:38;10.45;;;1.60;;
36575;SDS011;45700;50.930;5.168;2023-02-01T05:46:39;29.48;;;2.42;;
36575;SDS011;45700;50.930;5.168;2023-02-01T05:50:39;11.18;;;1.67;;
36575;SDS011;45700;50.930;5.168;2023-02-01T05:54:40;12.20;;;1.95;;
36575;SDS011;45700;50.930;5.168;2023-02-01T05:58:41;12.35;;;2.10;;
36575;SDS011;45700;50.930;5.168;2023-02-01T06:02:42;13.32;;;2.15;;
36575;SDS011;45700;50.930;5.168;2023-02-01T06:06:43;8.13;;;1.50;;
36575;SDS011;45700;50.930;5.168;2023-02-01T06:10:44;17.40;;;1.73;;
36575;SDS011;45700;50.930;5.168;2023-02-01T06:14:45;19.63;;;1.88;;
36575;SDS011;45700;50.930;5.168;2023-02-01T06:18:46;20.20;;;2.85;;
36575;SDS011;45700;50.930;5.168;2023-02-01T06:22:47;15.88;;;2.60;;
36575;SDS011;45700;50.930;5.168;2023-02-01T06:26:48;13.63;;;1.85;;
36575;SDS011;45700;50.930;5.168;2023-02-01T06:30:49;16.00;;;1.77;;
36575;SDS011;45700;50.930;5.168;2023-02-01T06:34:50;12.02;;;1.88;;
36575;SDS011;45700;50.930;5.168;2023-02-01T06:38:56;10.95;;;1.73;;
36575;SDS011;45700;50.930;5.168;2023-02-01T06:42:59;11.70;;;1.90;;
36575;SDS011;45700;50.930;5.168;2023-02-01T06:47:00;3.33;;;1.70;;
36575;SDS011;45700;50.930;5.168;2023-02-01T06:51:01;13.90;;;2.35;;
36575;SDS011;45700;50.930;5.168;2023-02-01T06:55:02;15.40;;;1.52;;
36575;SDS011;45700;50.930;5.168;2023-02-01T06:59:04;12.25;;;2.13;;
36575;SDS011;45700;50.930;5.168;2023-02-01T07:03:05;12.27;;;1.77;;
36575;SDS011;45700;50.930;5.168;2023-02-01T07:07:06;8.52;;;2.00;;
36575;SDS011;45700;50.930;5.168;2023-02-01T07:11:08;13.32;;;1.52;;
36575;SDS011;45700;50.930;5.168;2023-02-01T07:15:09;6.25;;;1.88;;
36575;SDS011;45700;50.930;5.168;2023-02-01T07:19:11;15.00;;;2.40;;
36575;SDS011;45700;50.930;5.168;2023-02-01T07:23:12;17.58;;;2.22;;
36575;SDS011;45700;50.930;5.168;2023-02-01T07:27:13;9.73;;;1.52;;
36575;SDS011;45700;50.930;5.168;2023-02-01T07:31:15;13.63;;;2.28;;
36575;SDS011;45700;50.930;5.168;2023-02-01T07:35:18;20.27;;;2.97;;
36575;SDS011;45700;50.930;5.168;2023-02-01T07:39:19;17.98;;;1.70;;
36575;SDS011;45700;50.930;5.168;2023-02-01T07:43:20;13.00;;;2.55;;
36575;SDS011;45700;50.930;5.168;2023-02-01T07:47:21;13.63;;;1.75;;
36575;SDS011;45700;50.930;5.168;2023-02-01T07:51:22;22.60;;;2.03;;
36575;SDS011;45700;50.930;5.168;2023-02-01T07:55:23;6.55;;;1.65;;
36575;SDS011;45700;50.930;5.168;2023-02-01T07:59:24;11.27;;;1.58;;
36575;SDS011;45700;50.930;5.168;2023-02-01T08:03:25;18.98;;;2.80;;
36575;SDS011;45700;50.930;5.168;2023-02-01T08:07:26;5.28;;;2.15;;
36575;SDS011;45700;50.930;5.168;2023-02-01T08:11:27;13.15;;;1.90;;
36575;SDS011;45700;50.930;5.168;2023-02-01T08:15:29;10.57;;;1.65;;
36575;SDS011;45700;50.930;5.168;2023-02-01T08:19:30;7.53;;;2.47;;
36575;SDS011;45700;50.930;5.168;2023-02-01T08:23:31;14.10;;;3.20;;
36575;SDS011;45700;50.930;5.168;2023-02-01T08:27:32;8.77;;;1.30;;
36575;SDS011;45700;50.930;5.168;2023-02-01T08:31:33;11.10;;;2.25;;
36575;SDS011;45700;50.930;5.168;2023-02-01T08:35:35;12.60;;;2.08;;
36575;SDS011;45700;50.930;5.168;2023-02-01T08:39:37;14.50;;;2.33;;
36575;SDS011;45700;50.930;5.168;2023-02-01T08:43:38;16.05;;;2.78;;
36575;SDS011;45700;50.930;5.168;2023-02-01T08:47:39;13.48;;;2.03;;
36575;SDS011;45700;50.930;5.168;2023-02-01T08:51:40;10.77;;;2.08;;
36575;SDS011;45700;50.930;5.168;2023-02-01T08:55:41;13.15;;;1.90;;
36575;SDS011;45700;50.930;5.168;2023-02-01T08:59:42;10.27;;;2.13;;
36575;SDS011;45700;50.930;5.168;2023-02-01T09:03:44;11.88;;;2.42;;
36575;SDS011;45700;50.930;5.168;2023-02-01T09:07:45;15.93;;;1.77;;
36575;SDS011;45700;50.930;5.168;2023-02-01T09:11:46;10.23;;;2.22;;
36575;SDS011;45700;50.930;5.168;2023-02-01T09:15:50;25.30;;;2.92;;
36575;SDS011;45700;50.930;5.168;2023-02-01T09:19:51;25.80;;;3.00;;
36575;SDS011;45700;50.930;5.168;2023-02-01T09:23:52;8.82;;;1.90;;
36575;SDS011;45700;50.930;5.168;2023-02-01T09:27:53;7.60;;;1.77;;
36575;SDS011;45700;50.930;5.168;2023-02-01T09:31:54;13.88;;;2.30;;
36575;SDS011;45700;50.930;5.168;2023-02-01T09:35:56;10.05;;;1.95;;
36575;SDS011;45700;50.930;5.168;2023-02-01T09:39:57;5.38;;;2.13;;
36575;SDS011;45700;50.930;5.168;2023-02-01T09:48:02;12.15;;;1.80;;
36575;SDS011;45700;50.930;5.168;2023-02-01T09:52:06;10.68;;;1.92;;
36575;SDS011;45700;50.930;5.168;2023-02-01T10:00:25;14.70;;;2.67;;
36575;SDS011;45700;50.930;5.168;2023-02-01T10:04:27;15.98;;;1.63;;
36575;SDS011;45700;50.930;5.168;2023-02-01T10:21:05;4.72;;;2.00;;
36575;SDS011;45700;50.930;5.168;2023-02-01T10:29:21;15.93;;;2.08;;
36575;SDS011;45700;50.930;5.168;2023-02-01T10:33:33;10.80;;;2.25;;
36575;SDS011;45700;50.930;5.168;2023-02-01T10:37:34;15.98;;;1.95;;
36575;SDS011;45700;50.930;5.168;2023-02-01T10:41:36;17.00;;;2.70;;
36575;SDS011;45700;50.930;5.168;2023-02-01T10:45:39;8.13;;;1.65;;
36575;SDS011;45700;50.930;5.168;2023-02-01T10:57:57;18.70;;;2.72;;
36575;SDS011;45700;50.930;5.168;2023-02-01T11:02:01;19.90;;;3.13;;
36575;SDS011;45700;50.930;5.168;2023-02-01T11:06:08;9.52;;;2.00;;
36575;SDS011;45700;50.930;5.168;2023-02-01T11:10:13;11.20;;;1.48;;
36575;SDS011;45700;50.930;5.168;2023-02-01T11:14:37;8.38;;;2.03;;
36575;SDS011;45700;50.930;5.168;2023-02-01T11:18:38;16.15;;;2.55;;
36575;SDS011;45700;50.930;5.168;2023-02-01T11:22:45;13.55;;;2.45;;
36575;SDS011;45700;50.930;5.168;2023-02-01T11:26:47;11.00;;;2.08;;
36575;SDS011;45700;50.930;5.168;2023-02-01T11:30:48;8.05;;;1.73;;
36575;SDS011;45700;50.930;5.168;2023-02-01T11:34:51;13.95;;;2.20;;
36575;SDS011;45700;50.930;5.168;2023-02-01T11:38:54;10.35;;;1.48;;
36575;SDS011;45700;50.930;5.168;2023-02-01T11:55:39;10.38;;;2.55;;
36575;SDS011;45700;50.930;5.168;2023-02-01T12:12:11;5.90;;;1.60;;
36575;SDS011;45700;50.930;5.168;2023-02-01T12:16:26;11.50;;;1.38;;
36575;SDS011;45700;50.930;5.168;2023-02-01T12:28:36;6.43;;;1.48;;
36575;SDS011;45700;50.930;5.168;2023-02-01T12:45:33;8.23;;;1.30;;
36575;SDS011;45700;50.930;5.168;2023-02-01T12:49:41;9.27;;;1.67;;
36575;SDS011;45700;50.930;5.168;2023-02-01T12:53:51;7.80;;;1.48;;
36575;SDS011;45700;50.930;5.168;2023-02-01T12:57:55;9.15;;;1.15;;
36575;SDS011;45700;50.930;5.168;2023-02-01T13:01:59;6.57;;;1.38;;
36575;SDS011;45700;50.930;5.168;2023-02-01T13:06:04;12.45;;;1.40;;
36575;SDS011;45700;50.930;5.168;2023-02-01T13:10:18;10.85;;;1.08;;
36575;SDS011;45700;50.930;5.168;2023-02-01T13:18:43;6.60;;;1.50;;
36575;SDS011;45700;50.930;5.168;2023-02-01T13:22:49;3.63;;;0.90;;
36575;SDS011;45700;50.930;5.168;2023-02-01T13:26:53;17.88;;;2.58;;
36575;SDS011;45700;50.930;5.168;2023-02-01T13:43:19;10.23;;;0.82;;
36575;SDS011;45700;50.930;5.168;2023-02-01T13:47:30;16.33;;;1.85;;
36575;SDS011;45700;50.930;5.168;2023-02-01T13:55:45;4.05;;;1.73;;
36575;SDS011;45700;50.930;5.168;2023-02-01T13:59:50;6.68;;;1.13;;
36575;SDS011;45700;50.930;5.168;2023-02-01T14:03:53;9.60;;;1.38;;
36575;SDS011;45700;50.930;5.168;2023-02-01T14:16:25;6.85;;;0.93;;
36575;SDS011;45700;50.930;5.168;2023-02-01T14:20:42;7.57;;;1.20;;
36575;SDS011;45700;50.930;5.168;2023-02-01T14:24:52;13.60;;;1.38;;
36575;SDS011;45700;50.930;5.168;2023-02-01T14:28:56;7.82;;;1.42;;
36575;SDS011;45700;50.930;5.168;2023-02-01T14:32:58;7.28;;;1.13;;
36575;SDS011;45700;50.930;5.168;2023-02-01T14:37:02;4.53;;;1.00;;
36575;SDS011;45700;50.930;5.168;2023-02-01T14:49:24;10.10;;;1.15;;
36575;SDS011;45700;50.930;5.168;2023-02-01T14:53:32;10.90;;;1.55;;
36575;SDS011;45700;50.930;5.168;2023-02-01T14:57:34;14.55;;;1.73;;
36575;SDS011;45700;50.930;5.168;2023-02-01T15:01:38;9.25;;;1.65;;
36575;SDS011;45700;50.930;5.168;2023-02-01T15:05:39;11.63;;;2.40;;
36575;SDS011;45700;50.930;5.168;2023-02-01T15:09:44;8.13;;;1.17;;
36575;SDS011;45700;50.930;5.168;2023-02-01T15:13:50;7.53;;;1.67;;
36575;SDS011;45700;50.930;5.168;2023-02-01T15:17:54;6.72;;;1.00;;
36575;SDS011;45700;50.930;5.168;2023-02-01T15:21:57;10.60;;;1.60;;
36575;SDS011;45700;50.930;5.168;2023-02-01T15:25:58;5.85;;;1.15;;
36575;SDS011;45700;50.930;5.168;2023-02-01T15:30:06;9.82;;;1.67;;
36575;SDS011;45700;50.930;5.168;2023-02-01T15:34:08;12.10;;;1.88;;
36575;SDS011;45700;50.930;5.168;2023-02-01T15:42:19;9.38;;;1.27;;
36575;SDS011;45700;50.930;5.168;2023-02-01T15:46:39;8.40;;;1.40;;
36575;SDS011;45700;50.930;5.168;2023-02-01T15:50:42;8.10;;;1.70;;
36575;SDS011;45700;50.930;5.168;2023-02-01T15:54:47;7.90;;;1.25;;
36575;SDS011;45700;50.930;5.168;2023-02-01T15:58:50;8.40;;;1.15;;
36575;SDS011;45700;50.930;5.168;2023-02-01T16:02:56;4.15;;;1.20;;
36575;SDS011;45700;50.930;5.168;2023-02-01T16:07:01;11.95;;;1.50;;
36575;SDS011;45700;50.930;5.168;2023-02-01T16:15:08;11.43;;;1.30;;
36575;SDS011;45700;50.930;5.168;2023-02-01T16:19:09;8.00;;;1.27;;
36575;SDS011;45700;50.930;5.168;2023-02-01T16:23:10;9.20;;;1.95;;
36575;SDS011;45700;50.930;5.168;2023-02-01T16:27:11;8.07;;;1.13;;
36575;SDS011;45700;50.930;5.168;2023-02-01T16:31:13;10.90;;;1.48;;
36575;SDS011;45700;50.930;5.168;2023-02-01T16:35:23;14.23;;;1.67;;
36575;SDS011;45700;50.930;5.168;2023-02-01T16:39:25;14.52;;;1.73;;
36575;SDS011;45700;50.930;5.168;2023-02-01T16:43:27;7.78;;;1.08;;
36575;SDS011;45700;50.930;5.168;2023-02-01T16:47:29;11.90;;;2.22;;
36575;SDS011;45700;50.930;5.168;2023-02-01T16:51:31;5.97;;;1.67;;
36575;SDS011;45700;50.930;5.168;2023-02-01T16:55:32;14.10;;;1.95;;
36575;SDS011;45700;50.930;5.168;2023-02-01T16:59:34;12.13;;;2.03;;
36575;SDS011;45700;50.930;5.168;2023-02-01T17:03:35;9.52;;;1.90;;
36575;SDS011;45700;50.930;5.168;2023-02-01T17:07:37;13.98;;;2.10;;
36575;SDS011;45700;50.930;5.168;2023-02-01T17:11:39;6.97;;;1.85;;
36575;SDS011;45700;50.930;5.168;2023-02-01T17:15:40;12.63;;;2.03;;
36575;SDS011;45700;50.930;5.168;2023-02-01T17:19:48;8.80;;;1.50;;
36575;SDS011;45700;50.930;5.168;2023-02-01T17:23:53;10.05;;;1.75;;
36575;SDS011;45700;50.930;5.168;2023-02-01T17:27:54;12.00;;;1.98;;
36575;SDS011;45700;50.930;5.168;2023-02-01T17:31:55;13.90;;;2.00;;
36575;SDS011;45700;50.930;5.168;2023-02-01T17:35:59;9.30;;;1.80;;
36575;SDS011;45700;50.930;5.168;2023-02-01T17:40:00;14.23;;;1.65;;
36575;SDS011;45700;50.930;5.168;2023-02-01T17:44:01;12.90;;;2.05;;
36575;SDS011;45700;50.930;5.168;2023-02-01T17:48:03;12.25;;;1.77;;
36575;SDS011;45700;50.930;5.168;2023-02-01T17:52:05;9.30;;;1.92;;
36575;SDS011;45700;50.930;5.168;2023-02-01T17:56:09;7.35;;;1.63;;
36575;SDS011;45700;50.930;5.168;2023-02-01T18:00:11;4.47;;;1.15;;
36575;SDS011;45700;50.930;5.168;2023-02-01T18:04:15;11.60;;;1.90;;
36575;SDS011;45700;50.930;5.168;2023-02-01T18:08:16;13.05;;;1.50;;
36575;SDS011;45700;50.930;5.168;2023-02-01T18:12:21;6.97;;;1.38;;
36575;SDS011;45700;50.930;5.168;2023-02-01T18:20:24;7.18;;;1.67;;
36575;SDS011;45700;50.930;5.168;2023-02-01T18:24:25;14.18;;;2.60;;
36575;SDS011;45700;50.930;5.168;2023-02-01T18:28:26;20.35;;;3.58;;
36575;SDS011;45700;50.930;5.168;2023-02-01T18:32:27;8.63;;;1.70;;
36575;SDS011;45700;50.930;5.168;2023-02-01T18:36:28;14.77;;;1.77;;
36575;SDS011;45700;50.930;5.168;2023-02-01T18:40:33;7.35;;;2.63;;
36575;SDS011;45700;50.930;5.168;2023-02-01T18:44:35;5.32;;;2.25;;
36575;SDS011;45700;50.930;5.168;2023-02-01T18:48:36;7.72;;;1.95;;
36575;SDS011;45700;50.930;5.168;2023-02-01T18:52:38;14.80;;;2.50;;
36575;SDS011;45700;50.930;5.168;2023-02-01T18:56:39;8.68;;;1.60;;
36575;SDS011;45700;50.930;5.168;2023-02-01T19:00:42;14.77;;;2.65;;
36575;SDS011;45700;50.930;5.168;2023-02-01T19:04:43;8.52;;;1.30;;
36575;SDS011;45700;50.930;5.168;2023-02-01T19:08:45;11.77;;;2.22;;
36575;SDS011;45700;50.930;5.168;2023-02-01T19:12:47;10.75;;;1.75;;
36575;SDS011;45700;50.930;5.168;2023-02-01T19:16:48;11.40;;;2.13;;
36575;SDS011;45700;50.930;5.168;2023-02-01T19:20:49;14.48;;;2.20;;
36575;SDS011;45700;50.930;5.168;2023-02-01T19:24:53;12.70;;;1.70;;
36575;SDS011;45700;50.930;5.168;2023-02-01T19:28:56;18.55;;;2.70;;
36575;SDS011;45700;50.930;5.168;2023-02-01T19:32:57;18.25;;;2.70;;
36575;SDS011;45700;50.930;5.168;2023-02-01T19:37:00;10.45;;;1.85;;
36575;SDS011;45700;50.930;5.168;2023-02-01T19:41:01;10.77;;;1.95;;
36575;SDS011;45700;50.930;5.168;2023-02-01T19:45:03;8.23;;;2.03;;
36575;SDS011;45700;50.930;5.168;2023-02-01T19:49:04;21.17;;;2.17;;
36575;SDS011;45700;50.930;5.168;2023-02-01T19:53:11;15.30;;;2.22;;
36575;SDS011;45700;50.930;5.168;2023-02-01T19:57:12;6.03;;;1.98;;
36575;SDS011;45700;50.930;5.168;2023-02-01T20:01:13;8.80;;;1.92;;
36575;SDS011;45700;50.930;5.168;2023-02-01T20:05:15;22.55;;;2.38;;
36575;SDS011;45700;50.930;5.168;2023-02-01T20:09:24;10.40;;;1.50;;
36575;SDS011;45700;50.930;5.168;2023-02-01T20:13:25;15.20;;;2.25;;
36575;SDS011;45700;50.930;5.168;2023-02-01T20:17:27;12.70;;;2.17;;
36575;SDS011;45700;50.930;5.168;2023-02-01T20:21:28;14.95;;;2.58;;
36575;SDS011;45700;50.930;5.168;2023-02-01T20:25:29;13.52;;;2.42;;
36575;SDS011;45700;50.930;5.168;2023-02-01T20:29:30;19.02;;;2.22;;
36575;SDS011;45700;50.930;5.168;2023-02-01T20:33:31;11.40;;;2.20;;
36575;SDS011;45700;50.930;5.168;2023-02-01T20:37:32;16.70;;;2.30;;
36575;SDS011;45700;50.930;5.168;2023-02-01T20:41:36;19.27;;;2.05;;
36575;SDS011;45700;50.930;5.168;2023-02-01T20:45:38;6.72;;;2.20;;
36575;SDS011;45700;50.930;5.168;2023-02-01T20:49:39;13.98;;;3.00;;
36575;SDS011;45700;50.930;5.168;2023-02-01T20:53:40;23.17;;;2.60;;
36575;SDS011;45700;50.930;5.168;2023-02-01T20:57:42;16.48;;;2.65;;
36575;SDS011;45700;50.930;5.168;2023-02-01T21:01:43;17.70;;;2.88;;
36575;SDS011;45700;50.930;5.168;2023-02-01T21:05:53;11.25;;;3.13;;
36575;SDS011;45700;50.930;5.168;2023-02-01T21:09:55;20.35;;;2.13;;
36575;SDS011;45700;50.930;5.168;2023-02-01T21:13:56;22.85;;;3.40;;
36575;SDS011;45700;50.930;5.168;2023-02-01T21:17:57;15.48;;;2.08;;
36575;SDS011;45700;50.930;5.168;2023-02-01T21:21:58;12.93;;;2.17;;
36575;SDS011;45700;50.930;5.168;2023-02-01T21:26:00;12.98;;;2.92;;
36575;SDS011;45700;50.930;5.168;2023-02-01T21:30:01;16.60;;;2.45;;
36575;SDS011;45700;50.930;5.168;2023-02-01T21:34:03;18.90;;;2.60;;
36575;SDS011;45700;50.930;5.168;2023-02-01T21:38:04;18.80;;;2.05;;
36575;SDS011;45700;50.930;5.168;2023-02-01T21:42:05;16.10;;;2.80;;
36575;SDS011;45700;50.930;5.168;2023-02-01T21:46:32;19.23;;;2.00;;
36575;SDS011;45700;50.930;5.168;2023-02-01T21:50:33;14.80;;;3.08;;
36575;SDS011;45700;50.930;5.168;2023-02-01T21:54:34;19.42;;;2.20;;
36575;SDS011;45700;50.930;5.168;2023-02-01T21:58:35;16.25;;;2.65;;
36575;SDS011;45700;50.930;5.168;2023-02-01T22:02:37;17.98;;;2.03;;
36575;SDS011;45700;50.930;5.168;2023-02-01T22:06:39;13.15;;;2.88;;
36575;SDS011;45700;50.930;5.168;2023-02-01T22:10:40;17.88;;;2.33;;
36575;SDS011;45700;50.930;5.168;2023-02-01T22:14:41;13.45;;;2.35;;
36575;SDS011;45700;50.930;5.168;2023-02-01T22:18:48;21.95;;;2.95;;
36575;SDS011;45700;50.930;5.168;2023-02-01T22:22:50;10.82;;;1.98;;
36575;SDS011;45700;50.930;5.168;2023-02-01T22:26:51;14.20;;;1.58;;
36575;SDS011;45700;50.930;5.168;2023-02-01T22:30:52;8.43;;;2.25;;
36575;SDS011;45700;50.930;5.168;2023-02-01T22:34:53;11.18;;;2.35;;
36575;SDS011;45700;50.930;5.168;2023-02-01T22:38:54;10.65;;;1.88;;
36575;SDS011;45700;50.930;5.168;2023-02-01T22:42:57;13.70;;;1.98;;
36575;SDS011;45700;50.930;5.168;2023-02-01T22:46:58;12.93;;;2.13;;
36575;SDS011;45700;50.930;5.168;2023-02-01T22:50:59;23.73;;;2.42;;
36575;SDS011;45700;50.930;5.168;2023-02-01T22:55:00;14.32;;;2.55;;
36575;SDS011;45700;50.930;5.168;2023-02-01T22:59:05;23.05;;;2.30;;
36575;SDS011;45700;50.930;5.168;2023-02-01T23:03:06;13.88;;;2.42;;
36575;SDS011;45700;50.930;5.168;2023-02-01T23:07:07;9.27;;;2.28;;
36575;SDS011;45700;50.930;5.168;2023-02-01T23:11:08;14.77;;;2.15;;
36575;SDS011;45700;50.930;5.168;2023-02-01T23:15:09;13.35;;;2.15;;
36575;SDS011;45700;50.930;5.168;2023-02-01T23:19:11;6.50;;;1.60;;
36575;SDS011;45700;50.930;5.168;2023-02-01T23:23:12;15.20;;;2.00;;
36575;SDS011;45700;50.930;5.168;2023-02-01T23:27:13;14.88;;;2.15;;
36575;SDS011;45700;50.930;5.168;2023-02-01T23:31:14;14.38;;;2.38;;
36575;SDS011;45700;50.930;5.168;2023-02-01T23:35:16;14.73;;;2.03;;
36575;SDS011;45700;50.930;5.168;2023-02-01T23:39:17;16.77;;;2.83;;
36575;SDS011;45700;50.930;5.168;2023-02-01T23:43:18;10.55;;;2.03;;
36575;SDS011;45700;50.930;5.168;2023-02-01T23:51:38;11.85;;;2.15;;
36575;SDS011;45700;50.930;5.168;2023-02-01T23:55:39;8.38;;;2.00;;
36575;SDS011;45700;50.930;5.168;2023-02-01T23:59:40;9.80;;;2.22;;
